createdAt,value
2018-05-02T00:00:03.723Z,12.26
2018-05-02T00:00:08.039Z,12.3
2018-05-02T00:00:12.151Z,12.22
2018-05-02T00:00:16.363Z,12.33
2018-05-02T00:00:20.569Z,12.3
2018-05-02T00:00:24.778Z,12.3
2018-05-02T00:00:29.089Z,12.23
2018-05-02T00:00:33.407Z,12.37
2018-05-02T00:00:37.606Z,12.33
2018-05-02T00:00:41.933Z,12.29
2018-05-02T00:00:46.257Z,12.21
2018-05-02T00:00:50.570Z,12.19
2018-05-02T00:00:54.778Z,12.23
2018-05-02T00:00:58.982Z,12.31
2018-05-02T00:01:03.232Z,12.23
2018-05-02T00:01:07.514Z,12.18
2018-05-02T00:01:11.847Z,12.25
2018-05-02T00:01:16.062Z,12.22
2018-05-02T00:01:20.382Z,12.22
2018-05-02T00:01:24.701Z,12.26
2018-05-02T00:01:29.023Z,12.26
2018-05-02T00:01:33.231Z,12.25
2018-05-02T00:01:37.558Z,12.22
2018-05-02T00:01:41.765Z,12.31
2018-05-02T00:01:45.970Z,12.23
2018-05-02T00:01:50.180Z,12.25
2018-05-02T00:01:54.506Z,12.26
2018-05-02T00:01:58.823Z,12.18
2018-05-02T00:02:02.928Z,12.26
2018-05-02T00:02:07.137Z,12.25
2018-05-02T00:02:11.393Z,12.23
2018-05-02T00:02:15.721Z,12.23
2018-05-02T00:02:20.049Z,12.29
2018-05-02T00:02:24.286Z,12.23
2018-05-02T00:02:28.495Z,12.22
2018-05-02T00:02:32.591Z,12.23
2018-05-02T00:02:36.692Z,12.25
2018-05-02T00:02:40.903Z,12.25
2018-05-02T00:02:45.104Z,12.26
2018-05-02T00:02:49.199Z,12.26
2018-05-02T00:02:53.409Z,12.22
2018-05-02T00:02:57.625Z,12.26
2018-05-02T00:03:01.621Z,12.3
2018-05-02T00:03:05.944Z,12.18
2018-05-02T00:03:10.257Z,12.3
2018-05-02T00:03:14.467Z,12.22
2018-05-02T00:03:18.356Z,12.19
2018-05-02T00:03:22.684Z,12.26
2018-05-02T00:03:26.903Z,12.3
2018-05-02T00:03:31.289Z,12.19
2018-05-02T00:03:35.279Z,12.19
2018-05-02T00:03:39.603Z,12.23
2018-05-02T00:03:43.807Z,12.22
2018-05-02T00:03:48.022Z,12.18
2018-05-02T00:03:52.126Z,12.29
2018-05-02T00:03:56.474Z,12.25
2018-05-02T00:04:00.572Z,12.26
2018-05-02T00:04:04.681Z,12.26
2018-05-02T00:04:09.006Z,12.25
2018-05-02T00:04:13.343Z,12.34
2018-05-02T00:04:17.662Z,12.26
2018-05-02T00:04:21.911Z,12.19
2018-05-02T00:04:26.009Z,12.34
2018-05-02T00:04:30.231Z,12.25
2018-05-02T00:04:34.443Z,12.21
2018-05-02T00:04:38.651Z,12.23
2018-05-02T00:04:42.982Z,12.23
2018-05-02T00:04:47.108Z,12.16
2018-05-02T00:04:51.326Z,12.25
2018-05-02T00:04:55.316Z,12.22
2018-05-02T00:04:59.415Z,12.26
2018-05-02T00:05:03.627Z,12.25
2018-05-02T00:05:07.750Z,12.23
2018-05-02T00:05:11.961Z,12.21
2018-05-02T00:05:16.062Z,12.23
2018-05-02T00:05:20.380Z,12.21
2018-05-02T00:05:24.693Z,12.22
2018-05-02T00:05:28.789Z,12.29
2018-05-02T00:05:32.995Z,12.29
2018-05-02T00:05:37.318Z,12.25
2018-05-02T00:05:41.492Z,12.21
2018-05-02T00:05:45.710Z,12.23
2018-05-02T00:05:49.924Z,12.16
2018-05-02T00:05:54.024Z,12.23
2018-05-02T00:05:58.344Z,12.19
2018-05-02T00:06:02.441Z,12.19
2018-05-02T00:06:06.539Z,12.23
2018-05-02T00:06:10.747Z,12.3
2018-05-02T00:06:14.849Z,12.26
2018-05-02T00:06:19.132Z,12.18
2018-05-02T00:06:23.337Z,12.18
2018-05-02T00:06:27.443Z,12.16
2018-05-02T00:06:31.555Z,12.15
2018-05-02T00:06:35.887Z,12.21
2018-05-02T00:06:40.210Z,12.19
2018-05-02T00:06:44.416Z,12.31
2018-05-02T00:06:48.617Z,12.23
2018-05-02T00:06:52.717Z,12.23
2018-05-02T00:06:56.931Z,12.19
2018-05-02T00:07:01.144Z,12.23
2018-05-02T00:07:05.372Z,12.19
2018-05-02T00:07:09.586Z,12.23
2018-05-02T00:07:13.801Z,12.19
2018-05-02T00:07:17.905Z,12.23
2018-05-02T00:07:22.108Z,12.23
2018-05-02T00:07:26.318Z,12.23
2018-05-02T00:07:30.536Z,12.26
2018-05-02T00:07:34.638Z,12.22
2018-05-02T00:07:38.954Z,12.21
2018-05-02T00:07:43.162Z,12.19
2018-05-02T00:07:47.264Z,12.29
2018-05-02T00:07:51.472Z,12.16
2018-05-02T00:07:55.750Z,12.31
2018-05-02T00:08:00.080Z,12.19
2018-05-02T00:08:04.542Z,12.22
2018-05-02T00:08:08.868Z,12.23
2018-05-02T00:08:13.074Z,12.19
2018-05-02T00:08:17.287Z,12.19
2018-05-02T00:08:21.497Z,12.22
2018-05-02T00:08:25.715Z,12.22
2018-05-02T00:08:29.923Z,12.15
2018-05-02T00:08:34.030Z,12.21
2018-05-02T00:08:38.240Z,12.23
2018-05-02T00:08:42.454Z,12.26
2018-05-02T00:08:46.660Z,12.26
2018-05-02T00:08:50.864Z,12.29
2018-05-02T00:08:55.184Z,12.22
2018-05-02T00:08:59.404Z,12.22
2018-05-02T00:09:03.726Z,12.31
2018-05-02T00:09:08.051Z,12.25
2018-05-02T00:09:12.260Z,12.26
2018-05-02T00:09:16.359Z,12.25
2018-05-02T00:09:20.573Z,12.26
2018-05-02T00:09:24.783Z,12.26
2018-05-02T00:09:28.881Z,12.25
2018-05-02T00:09:32.983Z,12.23
2018-05-02T00:09:37.309Z,12.29
2018-05-02T00:09:41.590Z,12.23
2018-05-02T00:09:45.909Z,12.16
2018-05-02T00:09:50.011Z,12.21
2018-05-02T00:09:54.219Z,12.22
2018-05-02T00:09:58.541Z,12.22
2018-05-02T00:10:02.926Z,12.26
2018-05-02T00:10:06.818Z,12.25
2018-05-02T00:10:11.139Z,12.33
2018-05-02T00:10:15.343Z,12.23
2018-05-02T00:10:19.746Z,12.26
2018-05-02T00:10:24.058Z,12.25
2018-05-02T00:10:28.157Z,12.25
2018-05-02T00:10:32.044Z,12.26
2018-05-02T00:10:36.149Z,12.25
2018-05-02T00:10:40.252Z,12.23
2018-05-02T00:10:44.521Z,12.16
2018-05-02T00:10:48.626Z,12.3
2018-05-02T00:10:52.942Z,12.22
2018-05-02T00:10:57.037Z,12.26
2018-05-02T00:11:01.250Z,12.18
2018-05-02T00:11:05.382Z,12.22
2018-05-02T00:11:09.479Z,12.25
2018-05-02T00:11:13.804Z,12.19
2018-05-02T00:11:18.019Z,12.18
2018-05-02T00:11:22.122Z,12.25
2018-05-02T00:11:26.329Z,12.23
2018-05-02T00:11:30.436Z,12.18
2018-05-02T00:11:34.536Z,12.26
2018-05-02T00:11:38.760Z,12.22
2018-05-02T00:11:42.971Z,12.21
2018-05-02T00:11:47.306Z,12.25
2018-05-02T00:11:51.517Z,12.22
2018-05-02T00:11:55.719Z,12.25
2018-05-02T00:11:59.815Z,12.25
2018-05-02T00:12:04.024Z,12.19
2018-05-02T00:12:08.020Z,12.3
2018-05-02T00:12:12.339Z,12.16
2018-05-02T00:12:16.663Z,12.25
2018-05-02T00:12:20.885Z,12.21
2018-05-02T00:12:24.986Z,12.29
2018-05-02T00:12:29.193Z,12.25
2018-05-02T00:12:33.415Z,12.29
2018-05-02T00:12:37.743Z,12.22
2018-05-02T00:12:41.969Z,12.29
2018-05-02T00:12:46.282Z,12.25
2018-05-02T00:12:50.497Z,12.23
2018-05-02T00:12:54.809Z,12.21
2018-05-02T00:12:59.019Z,12.3
2018-05-02T00:13:03.012Z,12.21
2018-05-02T00:13:07.228Z,12.19
2018-05-02T00:13:11.252Z,12.23
2018-05-02T00:13:15.483Z,12.26
2018-05-02T00:13:19.688Z,12.26
2018-05-02T00:13:24.001Z,12.31
2018-05-02T00:13:28.330Z,12.18
2018-05-02T00:13:32.553Z,12.16
2018-05-02T00:13:36.659Z,12.16
2018-05-02T00:13:40.975Z,12.18
2018-05-02T00:13:45.186Z,12.31
2018-05-02T00:13:49.391Z,12.16
2018-05-02T00:13:53.602Z,12.23
2018-05-02T00:13:57.924Z,12.19
2018-05-02T00:14:02.030Z,12.21
2018-05-02T00:14:06.250Z,12.19
2018-05-02T00:14:10.570Z,12.23
2018-05-02T00:14:14.778Z,12.19
2018-05-02T00:14:19.091Z,12.18
2018-05-02T00:14:23.297Z,12.26
2018-05-02T00:14:27.512Z,12.23
2018-05-02T00:14:31.612Z,12.22
2018-05-02T00:14:35.819Z,12.19
2018-05-02T00:14:40.138Z,12.33
2018-05-02T00:14:44.245Z,12.3
2018-05-02T00:14:48.353Z,12.36
2018-05-02T00:14:52.669Z,12.25
2018-05-02T00:14:56.877Z,12.23
2018-05-02T00:15:01.098Z,12.25
2018-05-02T00:15:05.198Z,12.29
2018-05-02T00:15:09.421Z,12.25
2018-05-02T00:15:13.414Z,12.33
2018-05-02T00:15:17.617Z,12.29
2018-05-02T00:15:21.932Z,12.22
2018-05-02T00:15:26.030Z,12.21
2018-05-02T00:15:30.237Z,12.29
2018-05-02T00:15:34.340Z,12.23
2018-05-02T00:15:38.439Z,12.33
2018-05-02T00:15:42.754Z,12.22
2018-05-02T00:15:47.082Z,12.22
2018-05-02T00:15:51.403Z,12.23
2018-05-02T00:15:55.768Z,12.23
2018-05-02T00:16:00.078Z,12.31
2018-05-02T00:16:04.410Z,12.37
2018-05-02T00:16:08.403Z,12.26
2018-05-02T00:16:12.722Z,12.25
2018-05-02T00:16:16.928Z,12.26
2018-05-02T00:16:21.132Z,12.34
2018-05-02T00:16:25.451Z,12.26
2018-05-02T00:16:29.777Z,12.25
2018-05-02T00:16:34.097Z,12.4
2018-05-02T00:16:38.315Z,12.33
2018-05-02T00:16:42.527Z,12.29
2018-05-02T00:16:46.850Z,12.33
2018-05-02T00:16:51.182Z,12.3
2018-05-02T00:16:55.389Z,12.37
2018-05-02T00:16:59.605Z,12.33
2018-05-02T00:17:03.926Z,12.29
2018-05-02T00:17:08.144Z,12.36
2018-05-02T00:17:12.360Z,12.37
2018-05-02T00:17:16.541Z,12.36
2018-05-02T00:17:20.754Z,12.29
2018-05-02T00:17:24.860Z,12.36
2018-05-02T00:17:29.144Z,12.25
2018-05-02T00:17:33.458Z,12.31
2018-05-02T00:17:37.660Z,12.26
2018-05-02T00:17:41.876Z,12.34
2018-05-02T00:17:46.195Z,12.3
2018-05-02T00:17:50.514Z,12.29
2018-05-02T00:17:54.728Z,12.31
2018-05-02T00:17:58.659Z,12.36
2018-05-02T00:18:03.233Z,12.29
2018-05-02T00:18:07.547Z,12.29
2018-05-02T00:18:12.360Z,12.33
2018-05-02T00:18:16.568Z,12.36
2018-05-02T00:18:20.674Z,12.33
2018-05-02T00:18:24.883Z,12.33
2018-05-02T00:18:29.145Z,12.36
2018-05-02T00:18:33.464Z,12.31
2018-05-02T00:18:37.564Z,12.25
2018-05-02T00:18:41.782Z,12.37
2018-05-02T00:18:46.095Z,12.37
2018-05-02T00:18:50.195Z,12.36
2018-05-02T00:18:54.405Z,12.36
2018-05-02T00:18:58.615Z,12.38
2018-05-02T00:19:02.971Z,12.3
2018-05-02T00:19:06.964Z,12.36
2018-05-02T00:19:11.285Z,12.3
2018-05-02T00:19:15.606Z,12.34
2018-05-02T00:19:19.920Z,12.3
2018-05-02T00:19:24.128Z,12.37
2018-05-02T00:19:28.374Z,12.4
2018-05-02T00:19:32.701Z,12.31
2018-05-02T00:19:36.930Z,12.31
2018-05-02T00:19:41.149Z,12.31
2018-05-02T00:19:45.482Z,12.3
2018-05-02T00:19:49.822Z,12.36
2018-05-02T00:19:54.135Z,12.29
2018-05-02T00:19:58.354Z,12.26
2018-05-02T00:20:02.586Z,12.3
2018-05-02T00:20:06.578Z,12.29
2018-05-02T00:20:10.828Z,12.31
2018-05-02T00:20:15.035Z,12.4
2018-05-02T00:20:19.243Z,12.37
2018-05-02T00:20:23.453Z,12.34
2018-05-02T00:20:27.661Z,12.33
2018-05-02T00:20:31.979Z,12.38
2018-05-02T00:20:36.292Z,12.29
2018-05-02T00:20:40.501Z,12.37
2018-05-02T00:20:44.813Z,12.33
2018-05-02T00:20:49.132Z,12.31
2018-05-02T00:20:53.336Z,12.3
2018-05-02T00:20:57.539Z,12.33
2018-05-02T00:21:01.740Z,12.34
2018-05-02T00:21:05.631Z,12.25
2018-05-02T00:21:09.736Z,12.34
2018-05-02T00:21:13.833Z,12.26
2018-05-02T00:21:18.145Z,12.37
2018-05-02T00:21:22.350Z,12.3
2018-05-02T00:21:26.454Z,12.33
2018-05-02T00:21:30.773Z,12.33
2018-05-02T00:21:35.090Z,12.33
2018-05-02T00:21:39.403Z,12.34
2018-05-02T00:21:43.516Z,12.33
2018-05-02T00:21:47.729Z,12.31
2018-05-02T00:21:51.839Z,12.26
2018-05-02T00:21:56.044Z,12.22
2018-05-02T00:22:00.256Z,12.33
2018-05-02T00:22:04.568Z,12.22
2018-05-02T00:22:08.776Z,12.22
2018-05-02T00:22:13.061Z,12.33
2018-05-02T00:22:17.172Z,12.23
2018-05-02T00:22:21.283Z,12.38
2018-05-02T00:22:25.508Z,12.3
2018-05-02T00:22:29.502Z,12.26
2018-05-02T00:22:33.713Z,12.31
2018-05-02T00:22:37.821Z,12.29
2018-05-02T00:22:42.029Z,12.31
2018-05-02T00:22:46.253Z,12.25
2018-05-02T00:22:50.571Z,12.3
2018-05-02T00:22:54.672Z,12.3
2018-05-02T00:22:58.768Z,12.29
2018-05-02T00:23:03.073Z,12.3
2018-05-02T00:23:07.176Z,12.26
2018-05-02T00:23:11.276Z,12.29
2018-05-02T00:23:15.485Z,12.34
2018-05-02T00:23:19.692Z,12.25
2018-05-02T00:23:23.789Z,12.29
2018-05-02T00:23:28.000Z,12.26
2018-05-02T00:23:32.209Z,12.34
2018-05-02T00:23:36.418Z,12.3
2018-05-02T00:23:40.624Z,12.25
2018-05-02T00:23:44.618Z,12.3
2018-05-02T00:23:48.613Z,12.4
2018-05-02T00:23:52.816Z,12.3
2018-05-02T00:23:57.132Z,12.34
2018-05-02T00:24:01.245Z,12.34
2018-05-02T00:24:05.242Z,12.3
2018-05-02T00:24:09.450Z,12.29
2018-05-02T00:24:13.653Z,12.37
2018-05-02T00:24:17.866Z,12.37
2018-05-02T00:24:22.078Z,12.33
2018-05-02T00:24:26.285Z,12.37
2018-05-02T00:24:30.387Z,12.29
2018-05-02T00:24:34.598Z,12.3
2018-05-02T00:24:38.915Z,12.37
2018-05-02T00:24:43.020Z,12.29
2018-05-02T00:24:47.119Z,12.25
2018-05-02T00:24:51.446Z,12.26
2018-05-02T00:24:55.763Z,12.4
2018-05-02T00:25:00.085Z,12.33
2018-05-02T00:25:04.076Z,12.34
2018-05-02T00:25:08.414Z,12.33
2018-05-02T00:25:12.622Z,12.3
2018-05-02T00:25:16.933Z,12.34
2018-05-02T00:25:21.048Z,12.26
2018-05-02T00:25:25.153Z,12.3
2018-05-02T00:25:29.365Z,12.36
2018-05-02T00:25:33.571Z,12.25
2018-05-02T00:25:37.782Z,12.23
2018-05-02T00:25:41.896Z,12.37
2018-05-02T00:25:46.215Z,12.31
2018-05-02T00:25:50.549Z,12.3
2018-05-02T00:25:54.647Z,12.31
2018-05-02T00:25:58.966Z,12.29
2018-05-02T00:26:03.124Z,12.38
2018-05-02T00:26:07.133Z,12.4
2018-05-02T00:26:11.453Z,12.29
2018-05-02T00:26:15.548Z,12.3
2018-05-02T00:26:19.871Z,12.33
2018-05-02T00:26:24.081Z,12.3
2018-05-02T00:26:28.070Z,12.34
2018-05-02T00:26:32.385Z,12.29
2018-05-02T00:26:36.705Z,12.36
2018-05-02T00:26:40.910Z,12.37
2018-05-02T00:26:45.121Z,12.34
2018-05-02T00:26:49.233Z,12.3
2018-05-02T00:26:53.450Z,12.29
2018-05-02T00:26:57.770Z,12.33
2018-05-02T00:27:01.981Z,12.25
2018-05-02T00:27:06.102Z,12.3
2018-05-02T00:27:10.093Z,12.29
2018-05-02T00:27:14.196Z,12.29
2018-05-02T00:27:18.522Z,12.29
2018-05-02T00:27:22.519Z,12.33
2018-05-02T00:27:26.745Z,12.37
2018-05-02T00:27:31.063Z,12.36
2018-05-02T00:27:35.275Z,12.37
2018-05-02T00:27:39.488Z,12.36
2018-05-02T00:27:43.829Z,12.3
2018-05-02T00:27:48.151Z,12.34
2018-05-02T00:27:52.473Z,12.33
2018-05-02T00:27:56.831Z,12.36
2018-05-02T00:28:01.148Z,12.31
2018-05-02T00:28:05.193Z,12.3
2018-05-02T00:28:09.407Z,12.37
2018-05-02T00:28:13.631Z,12.3
2018-05-02T00:28:17.945Z,12.34
2018-05-02T00:28:22.155Z,12.34
2018-05-02T00:28:26.461Z,12.3
2018-05-02T00:28:30.971Z,12.33
2018-05-02T00:28:35.624Z,12.4
2018-05-02T00:28:40.241Z,12.38
2018-05-02T00:28:44.531Z,12.29
2018-05-02T00:28:48.635Z,12.33
2018-05-02T00:28:52.951Z,12.25
2018-05-02T00:28:57.269Z,12.34
2018-05-02T00:29:01.369Z,12.29
2018-05-02T00:29:05.577Z,12.34
2018-05-02T00:29:09.781Z,12.31
2018-05-02T00:29:13.884Z,12.3
2018-05-02T00:29:18.205Z,12.25
2018-05-02T00:29:22.409Z,12.3
2018-05-02T00:29:26.719Z,12.29
2018-05-02T00:29:30.933Z,12.26
2018-05-02T00:29:35.035Z,12.37
2018-05-02T00:29:39.349Z,12.37
2018-05-02T00:29:43.549Z,12.37
2018-05-02T00:29:47.750Z,12.29
2018-05-02T00:29:51.953Z,12.26
2018-05-02T00:29:56.269Z,12.33
2018-05-02T00:30:00.588Z,12.37
2018-05-02T00:30:04.910Z,12.37
2018-05-02T00:30:09.117Z,12.29
2018-05-02T00:30:13.328Z,12.33
2018-05-02T00:30:17.645Z,12.26
2018-05-02T00:30:21.957Z,12.26
2018-05-02T00:30:26.057Z,12.37
2018-05-02T00:30:30.260Z,12.37
2018-05-02T00:30:34.578Z,12.29
2018-05-02T00:30:38.784Z,12.25
2018-05-02T00:30:43.005Z,12.34
2018-05-02T00:30:47.320Z,12.23
2018-05-02T00:30:51.417Z,12.3
2018-05-02T00:30:55.624Z,12.26
2018-05-02T00:30:59.840Z,12.29
2018-05-02T00:31:04.047Z,12.29
2018-05-02T00:31:08.370Z,12.36
2018-05-02T00:31:12.359Z,12.37
2018-05-02T00:31:16.566Z,12.23
2018-05-02T00:31:20.886Z,12.31
2018-05-02T00:31:25.227Z,12.25
2018-05-02T00:31:29.225Z,12.34
2018-05-02T00:31:33.442Z,12.34
2018-05-02T00:31:37.653Z,12.33
2018-05-02T00:31:41.968Z,12.34
2018-05-02T00:31:46.288Z,12.37
2018-05-02T00:31:50.504Z,12.31
2018-05-02T00:31:54.819Z,12.3
2018-05-02T00:31:58.916Z,12.26
2018-05-02T00:32:03.018Z,12.37
2018-05-02T00:32:07.224Z,12.25
2018-05-02T00:32:11.546Z,12.22
2018-05-02T00:32:15.754Z,12.31
2018-05-02T00:32:19.966Z,12.29
2018-05-02T00:32:24.182Z,12.31
2018-05-02T00:32:28.390Z,12.33
2018-05-02T00:32:32.669Z,12.34
2018-05-02T00:32:36.876Z,12.25
2018-05-02T00:32:41.191Z,12.25
2018-05-02T00:32:45.401Z,12.26
2018-05-02T00:32:49.614Z,12.21
2018-05-02T00:32:53.721Z,12.34
2018-05-02T00:32:57.932Z,12.3
2018-05-02T00:33:02.041Z,12.33
2018-05-02T00:33:06.190Z,12.26
2018-05-02T00:33:10.507Z,12.26
2018-05-02T00:33:14.819Z,12.25
2018-05-02T00:33:19.032Z,12.23
2018-05-02T00:33:23.247Z,12.33
2018-05-02T00:33:27.573Z,12.23
2018-05-02T00:33:31.889Z,12.26
2018-05-02T00:33:36.094Z,12.31
2018-05-02T00:33:40.308Z,12.21
2018-05-02T00:33:44.515Z,12.29
2018-05-02T00:33:48.831Z,12.33
2018-05-02T00:33:53.038Z,12.34
2018-05-02T00:33:57.437Z,12.26
2018-05-02T00:34:02.240Z,12.21
2018-05-02T00:34:06.837Z,12.26
2018-05-02T00:34:11.679Z,12.22
2018-05-02T00:34:15.891Z,12.25
2018-05-02T00:34:20.098Z,12.29
2018-05-02T00:34:24.215Z,12.18
2018-05-02T00:34:28.317Z,12.22
2018-05-02T00:34:32.652Z,12.31
2018-05-02T00:34:36.969Z,12.34
2018-05-02T00:34:41.294Z,12.31
2018-05-02T00:34:45.394Z,12.19
2018-05-02T00:34:49.275Z,12.23
2018-05-02T00:34:53.526Z,12.29
2018-05-02T00:34:57.850Z,12.26
2018-05-02T00:35:01.953Z,12.23
2018-05-02T00:35:05.889Z,12.18
2018-05-02T00:35:09.989Z,12.26
2018-05-02T00:35:14.097Z,12.3
2018-05-02T00:35:18.309Z,12.26
2018-05-02T00:35:22.514Z,12.23
2018-05-02T00:35:26.840Z,12.21
2018-05-02T00:35:31.059Z,12.25
2018-05-02T00:35:35.264Z,12.29
2018-05-02T00:35:39.470Z,12.25
2018-05-02T00:35:43.576Z,12.31
2018-05-02T00:35:47.895Z,12.29
2018-05-02T00:35:52.103Z,12.29
2018-05-02T00:35:56.384Z,12.26
2018-05-02T00:36:00.698Z,12.23
2018-05-02T00:36:04.857Z,12.22
2018-05-02T00:36:08.958Z,12.18
2018-05-02T00:36:13.272Z,12.16
2018-05-02T00:36:17.473Z,12.25
2018-05-02T00:36:21.575Z,12.26
2018-05-02T00:36:25.782Z,12.29
2018-05-02T00:36:29.988Z,12.18
2018-05-02T00:36:34.202Z,12.23
2018-05-02T00:36:38.582Z,12.31
2018-05-02T00:36:42.901Z,12.26
2018-05-02T00:36:46.998Z,12.26
2018-05-02T00:36:51.098Z,12.18
2018-05-02T00:36:55.211Z,12.26
2018-05-02T00:36:59.420Z,12.22
2018-05-02T00:37:03.704Z,12.23
2018-05-02T00:37:07.905Z,12.19
2018-05-02T00:37:12.012Z,12.25
2018-05-02T00:37:16.331Z,12.26
2018-05-02T00:37:20.537Z,12.19
2018-05-02T00:37:24.857Z,12.19
2018-05-02T00:37:29.172Z,12.16
2018-05-02T00:37:33.381Z,12.16
2018-05-02T00:37:37.707Z,12.19
2018-05-02T00:37:42.024Z,12.22
2018-05-02T00:37:46.234Z,12.22
2018-05-02T00:37:50.551Z,12.29
2018-05-02T00:37:54.723Z,12.33
2018-05-02T00:37:58.934Z,12.26
2018-05-02T00:38:03.346Z,12.18
2018-05-02T00:38:07.697Z,12.19
2018-05-02T00:38:11.903Z,12.25
2018-05-02T00:38:16.112Z,12.31
2018-05-02T00:38:20.319Z,12.3
2018-05-02T00:38:24.535Z,12.25
2018-05-02T00:38:28.645Z,12.29
2018-05-02T00:38:32.854Z,12.19
2018-05-02T00:38:37.172Z,12.23
2018-05-02T00:38:41.392Z,12.25
2018-05-02T00:38:45.603Z,12.18
2018-05-02T00:38:49.888Z,12.18
2018-05-02T00:38:54.096Z,12.26
2018-05-02T00:38:58.404Z,12.15
2018-05-02T00:39:02.585Z,12.22
2018-05-02T00:39:06.689Z,12.23
2018-05-02T00:39:11.009Z,12.29
2018-05-02T00:39:15.333Z,12.21
2018-05-02T00:39:19.548Z,12.34
2018-05-02T00:39:23.750Z,12.16
2018-05-02T00:39:28.078Z,12.23
2018-05-02T00:39:32.290Z,12.18
2018-05-02T00:39:36.502Z,12.25
2018-05-02T00:39:40.752Z,12.19
2018-05-02T00:39:45.073Z,12.22
2018-05-02T00:39:49.276Z,12.21
2018-05-02T00:39:53.489Z,12.22
2018-05-02T00:39:57.811Z,12.26
2018-05-02T00:40:01.800Z,12.21
2018-05-02T00:40:05.799Z,12.23
2018-05-02T00:40:10.018Z,12.22
2018-05-02T00:40:14.226Z,12.29
2018-05-02T00:40:18.549Z,12.21
2018-05-02T00:40:22.768Z,12.25
2018-05-02T00:40:26.863Z,12.29
2018-05-02T00:40:31.070Z,12.18
2018-05-02T00:40:35.384Z,12.21
2018-05-02T00:40:39.726Z,12.29
2018-05-02T00:40:44.051Z,12.3
2018-05-02T00:40:48.378Z,12.3
2018-05-02T00:40:52.489Z,12.25
2018-05-02T00:40:56.703Z,12.23
2018-05-02T00:41:00.918Z,12.22
2018-05-02T00:41:05.343Z,12.22
2018-05-02T00:41:09.445Z,12.23
2018-05-02T00:41:13.654Z,12.16
2018-05-02T00:41:17.755Z,12.25
2018-05-02T00:41:21.971Z,12.23
2018-05-02T00:41:26.212Z,12.23
2018-05-02T00:41:30.312Z,12.23
2018-05-02T00:41:34.414Z,12.23
2018-05-02T00:41:38.620Z,12.26
2018-05-02T00:41:42.827Z,12.23
2018-05-02T00:41:46.924Z,12.26
2018-05-02T00:41:51.314Z,12.29
2018-05-02T00:41:55.526Z,12.23
2018-05-02T00:41:59.837Z,12.21
2018-05-02T00:42:04.008Z,12.25
2018-05-02T00:42:08.224Z,12.25
2018-05-02T00:42:12.324Z,12.18
2018-05-02T00:42:16.643Z,12.26
2018-05-02T00:42:20.746Z,12.26
2018-05-02T00:42:25.065Z,12.21
2018-05-02T00:42:29.385Z,12.19
2018-05-02T00:42:33.698Z,12.29
2018-05-02T00:42:38.021Z,12.25
2018-05-02T00:42:42.240Z,12.33
2018-05-02T00:42:46.464Z,12.26
2018-05-02T00:42:50.672Z,12.29
2018-05-02T00:42:54.988Z,12.21
2018-05-02T00:42:59.311Z,12.26
2018-05-02T00:43:03.416Z,12.25
2018-05-02T00:43:07.628Z,12.25
2018-05-02T00:43:11.844Z,12.31
2018-05-02T00:43:16.050Z,12.33
2018-05-02T00:43:20.363Z,12.29
2018-05-02T00:43:24.474Z,12.3
2018-05-02T00:43:28.788Z,12.22
2018-05-02T00:43:32.995Z,12.34
2018-05-02T00:43:37.098Z,12.26
2018-05-02T00:43:41.313Z,12.33
2018-05-02T00:43:45.531Z,12.21
2018-05-02T00:43:49.737Z,12.23
2018-05-02T00:43:53.835Z,12.22
2018-05-02T00:43:57.827Z,12.25
2018-05-02T00:44:01.928Z,12.26
2018-05-02T00:44:06.030Z,12.23
2018-05-02T00:44:10.343Z,12.23
2018-05-02T00:44:14.444Z,12.25
2018-05-02T00:44:18.651Z,12.23
2018-05-02T00:44:22.860Z,12.29
2018-05-02T00:44:26.967Z,12.22
2018-05-02T00:44:31.029Z,12.23
2018-05-02T00:44:35.135Z,12.19
2018-05-02T00:44:39.453Z,12.23
2018-05-02T00:44:43.662Z,12.18
2018-05-02T00:44:47.978Z,12.25
2018-05-02T00:44:51.968Z,12.31
2018-05-02T00:44:56.357Z,12.26
2018-05-02T00:45:00.592Z,12.26
2018-05-02T00:45:04.778Z,12.25
2018-05-02T00:45:08.983Z,12.18
2018-05-02T00:45:13.083Z,12.18
2018-05-02T00:45:17.400Z,12.21
2018-05-02T00:45:21.617Z,12.3
2018-05-02T00:45:25.829Z,12.16
2018-05-02T00:45:29.922Z,12.23
2018-05-02T00:45:34.078Z,12.29
2018-05-02T00:45:38.294Z,12.3
2018-05-02T00:45:42.626Z,12.3
2018-05-02T00:45:46.945Z,12.26
2018-05-02T00:45:51.150Z,12.29
2018-05-02T00:45:55.357Z,12.33
2018-05-02T00:45:59.453Z,12.26
2018-05-02T00:46:03.558Z,12.22
2018-05-02T00:46:07.877Z,12.3
2018-05-02T00:46:12.192Z,12.26
2018-05-02T00:46:16.514Z,12.3
2018-05-02T00:46:20.831Z,12.22
2018-05-02T00:46:24.930Z,12.26
2018-05-02T00:46:29.325Z,12.25
2018-05-02T00:46:33.425Z,12.23
2018-05-02T00:46:37.628Z,12.26
2018-05-02T00:46:41.947Z,12.23
2018-05-02T00:46:46.263Z,12.19
2018-05-02T00:46:50.475Z,12.23
2018-05-02T00:46:54.681Z,12.23
2018-05-02T00:46:58.782Z,12.22
2018-05-02T00:47:03.253Z,12.25
2018-05-02T00:47:07.360Z,12.26
2018-05-02T00:47:11.351Z,12.29
2018-05-02T00:47:15.447Z,12.23
2018-05-02T00:47:19.440Z,12.22
2018-05-02T00:47:23.660Z,12.18
2018-05-02T00:47:27.864Z,12.26
2018-05-02T00:47:32.204Z,12.25
2018-05-02T00:47:36.419Z,12.19
2018-05-02T00:47:40.628Z,12.21
2018-05-02T00:47:44.726Z,12.16
2018-05-02T00:47:48.941Z,12.26
2018-05-02T00:47:53.152Z,12.19
2018-05-02T00:47:57.370Z,12.23
2018-05-02T00:48:01.577Z,12.19
2018-05-02T00:48:05.679Z,12.21
2018-05-02T00:48:09.778Z,12.16
2018-05-02T00:48:14.095Z,12.18
2018-05-02T00:48:18.302Z,12.29
2018-05-02T00:48:22.628Z,12.18
2018-05-02T00:48:26.840Z,12.19
2018-05-02T00:48:31.062Z,12.19
2018-05-02T00:48:35.164Z,12.21
2018-05-02T00:48:39.157Z,12.15
2018-05-02T00:48:43.258Z,12.23
2018-05-02T00:48:47.576Z,12.16
2018-05-02T00:48:51.687Z,12.16
2018-05-02T00:48:56.132Z,12.16
2018-05-02T00:49:00.396Z,12.18
2018-05-02T00:49:04.653Z,12.16
2018-05-02T00:49:08.860Z,12.16
2018-05-02T00:49:13.074Z,12.16
2018-05-02T00:49:17.401Z,12.15
2018-05-02T00:49:21.611Z,12.22
2018-05-02T00:49:25.830Z,12.16
2018-05-02T00:49:29.945Z,12.19
2018-05-02T00:49:34.165Z,12.16
2018-05-02T00:49:38.265Z,12.12
2018-05-02T00:49:42.360Z,12.16
2018-05-02T00:49:46.464Z,12.15
2018-05-02T00:49:50.670Z,12.21
2018-05-02T00:49:54.770Z,12.16
2018-05-02T00:49:58.980Z,12.16
2018-05-02T00:50:03.203Z,12.15
2018-05-02T00:50:07.200Z,12.16
2018-05-02T00:50:11.529Z,12.16
2018-05-02T00:50:15.854Z,12.08
2018-05-02T00:50:20.064Z,12.16
2018-05-02T00:50:24.283Z,12.12
2018-05-02T00:50:28.565Z,12.08
2018-05-02T00:50:32.890Z,12.07
2018-05-02T00:50:37.206Z,12.08
2018-05-02T00:50:41.414Z,12.05
2018-05-02T00:50:45.511Z,12.16
2018-05-02T00:50:49.714Z,12.04
2018-05-02T00:50:54.101Z,12.13
2018-05-02T00:50:58.203Z,12.07
2018-05-02T00:51:02.667Z,12.16
2018-05-02T00:51:06.965Z,12.08
2018-05-02T00:51:11.281Z,12.07
2018-05-02T00:51:15.273Z,12.12
2018-05-02T00:51:19.376Z,12.16
2018-05-02T00:51:23.478Z,12.18
2018-05-02T00:51:27.790Z,12.05
2018-05-02T00:51:32.115Z,12.08
2018-05-02T00:51:36.433Z,12.03
2018-05-02T00:51:40.642Z,12.16
2018-05-02T00:51:44.747Z,12.13
2018-05-02T00:51:48.956Z,12.15
2018-05-02T00:51:53.056Z,12.11
2018-05-02T00:51:57.262Z,12.16
2018-05-02T00:52:01.361Z,12.05
2018-05-02T00:52:05.561Z,12.08
2018-05-02T00:52:09.658Z,12.05
2018-05-02T00:52:13.865Z,12.13
2018-05-02T00:52:17.962Z,12.04
2018-05-02T00:52:22.286Z,12.04
2018-05-02T00:52:26.509Z,12.11
2018-05-02T00:52:30.832Z,12.07
2018-05-02T00:52:35.040Z,12.05
2018-05-02T00:52:39.361Z,12.01
2018-05-02T00:52:43.566Z,12.07
2018-05-02T00:52:47.665Z,12.07
2018-05-02T00:52:51.878Z,12.13
2018-05-02T00:52:56.089Z,12.05
2018-05-02T00:53:00.294Z,12.08
2018-05-02T00:53:04.393Z,12.15
2018-05-02T00:53:08.706Z,12.05
2018-05-02T00:53:13.026Z,12.08
2018-05-02T00:53:17.245Z,12.13
2018-05-02T00:53:21.538Z,12.12
2018-05-02T00:53:25.864Z,12.11
2018-05-02T00:53:29.968Z,12.12
2018-05-02T00:53:33.850Z,12.12
2018-05-02T00:53:38.168Z,12.16
2018-05-02T00:53:42.377Z,12.12
2018-05-02T00:53:46.479Z,12.16
2018-05-02T00:53:50.799Z,12.12
2018-05-02T00:53:55.116Z,12.11
2018-05-02T00:53:59.213Z,12.07
2018-05-02T00:54:03.424Z,12.11
2018-05-02T00:54:07.558Z,12.11
2018-05-02T00:54:11.773Z,12.08
2018-05-02T00:54:16.099Z,12
2018-05-02T00:54:20.199Z,12.08
2018-05-02T00:54:24.406Z,12.08
2018-05-02T00:54:28.524Z,12.05